createdAt,value
2019-04-04T00:00:59.918Z,15.13
2019-04-04T00:03:29.232Z,15.90
2019-04-04T00:05:58.812Z,14.77
2019-04-04T00:08:30.961Z,12.57
2019-04-04T00:10:59.582Z,12.90
2019-04-04T00:13:28.938Z,13.93
2019-04-04T00:15:58.234Z,12.40
2019-04-04T00:18:27.984Z,12.20
2019-04-04T00:20:57.745Z,13.47
2019-04-04T00:23:27.063Z,10.20
2019-04-04T00:25:56.827Z,9.90
2019-04-04T00:28:26.122Z,8.97
2019-04-04T00:30:55.443Z,9.20
2019-04-04T00:33:25.732Z,8.13
2019-04-04T00:35:55.673Z,8.73
2019-04-04T00:38:25.414Z,8.60
2019-04-04T00:40:54.755Z,8.53
2019-04-04T00:43:24.087Z,8.80
2019-04-04T00:45:53.391Z,9.60
2019-04-04T00:48:22.734Z,8.57
2019-04-04T00:50:52.467Z,6.90
2019-04-04T00:53:22.161Z,6.80
2019-04-04T00:55:51.480Z,7.27
2019-04-04T00:58:21.367Z,8.23
2019-04-04T01:00:50.822Z,7.90
2019-04-04T01:03:20.562Z,7.93
2019-04-04T01:05:49.895Z,7.00
2019-04-04T01:08:19.218Z,8.20
2019-04-04T01:10:49.832Z,8.37
2019-04-04T01:13:21.243Z,7.47
2019-04-04T01:15:50.919Z,8.47
2019-04-04T01:18:20.224Z,7.70
2019-04-04T01:20:50.662Z,8.50
2019-04-04T01:23:20.701Z,7.37
2019-04-04T01:25:50.025Z,7.13
2019-04-04T01:28:19.490Z,7.57
2019-04-04T01:30:49.168Z,6.90
2019-04-04T01:33:20.075Z,7.77
2019-04-04T01:35:49.652Z,7.73
2019-04-04T01:38:19.492Z,7.50
2019-04-04T01:40:49.116Z,8.30
2019-04-04T01:43:18.408Z,8.30
2019-04-04T01:45:48.242Z,7.40
2019-04-04T01:48:18.798Z,8.27
2019-04-04T01:50:48.663Z,7.50
2019-04-04T01:53:18.038Z,8.67
2019-04-04T01:55:47.327Z,8.77
2019-04-04T01:58:16.626Z,7.43
2019-04-04T02:00:46.607Z,7.80
2019-04-04T02:03:16.006Z,7.67
2019-04-04T02:05:45.306Z,8.07
2019-04-04T02:08:14.590Z,7.53
2019-04-04T02:10:44.049Z,7.50
2019-04-04T02:13:13.730Z,8.07
2019-04-04T02:15:44.755Z,9.30
2019-04-04T02:18:14.333Z,7.90
2019-04-04T02:20:43.614Z,7.03
2019-04-04T02:23:13.003Z,8.47
2019-04-04T02:25:42.734Z,7.70
2019-04-04T02:28:12.187Z,7.60
2019-04-04T02:30:41.462Z,6.53
2019-04-04T02:33:11.245Z,8.07
2019-04-04T02:35:42.755Z,8.23
2019-04-04T02:38:11.452Z,8.30
2019-04-04T02:40:42.100Z,8.50
2019-04-04T02:43:11.930Z,6.07
2019-04-04T02:45:41.707Z,8.33
2019-04-04T02:48:11.411Z,9.10
2019-04-04T02:50:40.709Z,8.80
2019-04-04T02:53:10.281Z,8.97
2019-04-04T02:55:39.577Z,9.43
2019-04-04T02:58:13.702Z,10.50
2019-04-04T03:00:40.220Z,11.03
2019-04-04T03:03:09.638Z,10.07
2019-04-04T03:05:39.007Z,10.30
2019-04-04T03:08:08.311Z,9.83
2019-04-04T03:10:37.635Z,9.97
2019-04-04T03:13:06.927Z,9.27
2019-04-04T03:15:36.224Z,10.53
2019-04-04T03:18:05.627Z,9.20
2019-04-04T03:20:34.990Z,9.30
2019-04-04T03:23:04.676Z,10.10
2019-04-04T03:25:33.946Z,8.70
2019-04-04T03:28:03.286Z,10.67
2019-04-04T03:30:32.603Z,11.37
2019-04-04T03:33:01.920Z,10.70
2019-04-04T03:35:31.195Z,11.50
2019-04-04T03:38:00.788Z,11.10
2019-04-04T03:40:30.075Z,11.40
2019-04-04T03:42:59.368Z,11.57
2019-04-04T03:45:28.670Z,11.50
2019-04-04T03:47:57.954Z,11.00
2019-04-04T03:50:30.241Z,12.03
2019-04-04T03:52:58.536Z,10.93
2019-04-04T03:55:28.662Z,10.30
2019-04-04T03:57:58.436Z,11.17
2019-04-04T04:00:29.182Z,11.50
2019-04-04T04:02:58.503Z,10.63
2019-04-04T04:05:27.802Z,11.27
2019-04-04T04:07:57.914Z,10.73
2019-04-04T04:10:27.189Z,11.60
2019-04-04T04:12:56.513Z,11.83
2019-04-04T04:15:29.071Z,9.60
2019-04-04T04:17:57.179Z,10.00
2019-04-04T04:20:26.627Z,10.47
2019-04-04T04:22:55.928Z,10.83
2019-04-04T04:25:25.582Z,11.67
2019-04-04T04:27:54.896Z,10.40
2019-04-04T04:30:24.215Z,9.70
2019-04-04T04:32:57.169Z,9.83
2019-04-04T04:35:25.574Z,11.73
2019-04-04T04:37:54.864Z,10.60
2019-04-04T04:40:24.132Z,9.90
2019-04-04T04:42:54.173Z,8.00
2019-04-04T04:45:24.955Z,9.27
2019-04-04T04:47:57.071Z,8.50
2019-04-04T04:50:25.605Z,9.00
2019-04-04T04:52:55.067Z,10.30
2019-04-04T04:55:27.194Z,9.70
2019-04-04T04:57:56.693Z,9.43
2019-04-04T05:00:27.958Z,9.23
2019-04-04T05:02:57.938Z,9.87
2019-04-04T05:05:31.151Z,11.23
2019-04-04T05:07:59.158Z,10.43
2019-04-04T05:10:28.431Z,9.70
2019-04-04T05:12:58.103Z,9.70
2019-04-04T05:15:27.721Z,11.33
2019-04-04T05:17:57.133Z,10.40
2019-04-04T05:20:29.804Z,11.53
2019-04-04T05:22:58.532Z,12.17
2019-04-04T05:25:30.851Z,13.00
2019-04-04T05:27:59.410Z,10.30
2019-04-04T05:30:29.406Z,12.33
2019-04-04T05:32:58.682Z,9.73
2019-04-04T05:35:28.163Z,10.33
2019-04-04T05:38:16.595Z,10.23
2019-04-04T05:40:46.275Z,10.50
2019-04-04T05:43:15.819Z,10.37
2019-04-04T05:45:45.863Z,11.20
2019-04-04T05:48:15.680Z,10.60
2019-04-04T05:50:44.950Z,12.43
2019-04-04T05:53:14.653Z,12.93
2019-04-04T05:55:44.378Z,11.63
2019-04-04T05:58:14.058Z,11.87
2019-04-04T06:00:46.063Z,11.07
2019-04-04T06:03:15.940Z,13.00
2019-04-04T06:05:45.786Z,12.13
2019-04-04T06:08:15.078Z,12.17
2019-04-04T06:10:44.362Z,11.97
2019-04-04T06:13:13.710Z,12.10
2019-04-04T06:15:43.060Z,12.57
2019-04-04T06:18:12.367Z,14.10
2019-04-04T06:20:41.714Z,12.60
2019-04-04T06:23:11.464Z,12.53
2019-04-04T06:25:40.800Z,12.97
2019-04-04T06:28:12.027Z,12.77
2019-04-04T06:30:43.525Z,14.73
2019-04-04T06:33:12.655Z,14.00
2019-04-04T06:35:41.947Z,13.93
2019-04-04T06:38:11.977Z,13.20
2019-04-04T06:40:41.363Z,13.33
2019-04-04T06:43:11.970Z,14.77
2019-04-04T06:45:41.350Z,14.60
2019-04-04T06:48:10.668Z,13.73
2019-04-04T06:50:42.874Z,14.13
2019-04-04T06:53:10.915Z,14.53
2019-04-04T06:55:40.550Z,14.63
2019-04-04T06:58:09.910Z,15.33
2019-04-04T07:00:41.863Z,14.00
2019-04-04T07:03:11.041Z,13.77
2019-04-04T07:05:41.897Z,12.93
2019-04-04T07:08:11.175Z,14.00
2019-04-04T07:10:40.854Z,14.57
2019-04-04T07:13:21.474Z,13.37
2019-04-04T07:15:46.654Z,12.80
2019-04-04T07:18:12.983Z,13.03
2019-04-04T07:20:42.565Z,14.17
2019-04-04T07:23:14.281Z,12.90
2019-04-04T07:25:42.773Z,15.17
2019-04-04T07:28:12.095Z,13.60
2019-04-04T07:30:42.083Z,14.17
2019-04-04T07:33:12.935Z,13.80
2019-04-04T07:35:42.338Z,14.37
2019-04-04T07:38:11.666Z,13.37
2019-04-04T07:40:41.287Z,13.30
2019-04-04T07:43:10.608Z,12.93
2019-04-04T07:45:39.882Z,12.13
2019-04-04T07:48:09.171Z,14.00
2019-04-04T07:50:38.459Z,12.80
2019-04-04T07:53:07.766Z,12.53
2019-04-04T07:55:37.046Z,11.10
2019-04-04T07:58:06.502Z,12.57
2019-04-04T08:00:35.862Z,14.37
2019-04-04T08:03:05.200Z,11.30
2019-04-04T08:05:34.470Z,14.70
2019-04-04T08:08:03.790Z,12.10
2019-04-04T08:10:33.082Z,11.13
2019-04-04T08:13:02.604Z,11.13
2019-04-04T08:15:31.891Z,11.43
2019-04-04T08:18:01.166Z,11.27
2019-04-04T08:20:30.485Z,11.10
2019-04-04T08:22:59.827Z,11.03
2019-04-04T08:25:29.451Z,11.83
2019-04-04T08:27:58.872Z,11.63
2019-04-04T08:30:28.215Z,10.00
2019-04-04T08:32:58.418Z,10.27
2019-04-04T08:35:27.720Z,11.13
2019-04-04T08:37:57.135Z,10.17
2019-04-04T08:40:26.836Z,10.73
2019-04-04T08:42:56.219Z,10.33
2019-04-04T08:45:25.530Z,10.00
2019-04-04T08:47:54.825Z,12.13
2019-04-04T08:50:24.454Z,11.17
2019-04-04T08:52:53.899Z,9.70
2019-04-04T08:55:23.634Z,10.60
2019-04-04T08:57:52.920Z,9.67
2019-04-04T09:00:22.498Z,10.50
2019-04-04T09:02:52.526Z,11.70
2019-04-04T09:05:21.830Z,10.07
2019-04-04T09:07:51.119Z,10.63
2019-04-04T09:10:20.444Z,9.90
2019-04-04T09:12:49.766Z,10.27
2019-04-04T09:15:19.054Z,9.27
2019-04-04T09:17:48.643Z,9.73
2019-04-04T09:20:17.934Z,10.20
2019-04-04T09:22:47.250Z,10.27
2019-04-04T09:25:16.534Z,8.53
2019-04-04T09:27:45.948Z,9.63
2019-04-04T09:30:15.231Z,8.73
2019-04-04T09:32:44.518Z,9.90
2019-04-04T09:35:13.837Z,10.70
2019-04-04T09:37:43.122Z,9.90
2019-04-04T09:40:12.430Z,10.93
2019-04-04T09:42:41.706Z,11.03
2019-04-04T09:45:10.992Z,10.60
2019-04-04T09:47:40.273Z,12.17
2019-04-04T09:50:11.426Z,11.50
2019-04-04T09:52:40.715Z,10.30
2019-04-04T09:55:09.981Z,9.67
2019-04-04T09:57:39.394Z,10.50
2019-04-04T10:00:11.464Z,11.20
2019-04-04T10:02:40.749Z,10.70
2019-04-04T10:05:10.108Z,10.83
2019-04-04T10:07:39.369Z,10.73
2019-04-04T10:10:08.786Z,9.43
2019-04-04T10:12:38.208Z,11.40
2019-04-04T10:15:08.201Z,11.30
2019-04-04T10:17:37.494Z,11.87
2019-04-04T10:20:06.879Z,12.30
2019-04-04T10:22:36.190Z,11.73
2019-04-04T10:25:06.138Z,12.90
2019-04-04T10:27:35.465Z,11.27
2019-04-04T10:30:05.440Z,12.47
2019-04-04T10:32:34.719Z,11.57
2019-04-04T10:35:04.289Z,12.27
2019-04-04T10:37:33.562Z,12.87
2019-04-04T10:40:03.027Z,12.37
2019-04-04T10:42:32.319Z,12.20
2019-04-04T10:45:01.965Z,12.63
2019-04-04T10:47:31.285Z,12.63
2019-04-04T10:50:00.595Z,14.07
2019-04-04T10:52:29.906Z,14.70
2019-04-04T10:55:01.452Z,15.33
2019-04-04T10:57:30.640Z,18.43
2019-04-04T11:00:03.075Z,16.47
2019-04-04T11:02:31.270Z,14.30
2019-04-04T11:05:00.553Z,13.90
2019-04-04T11:07:29.868Z,13.77
2019-04-04T11:09:59.159Z,14.83
2019-04-04T11:12:28.517Z,14.80
2019-04-04T11:14:57.818Z,16.20
2019-04-04T11:17:27.159Z,15.17
2019-04-04T11:19:56.809Z,16.13
2019-04-04T11:22:26.214Z,15.30
2019-04-04T11:24:55.899Z,14.63
2019-04-04T11:27:25.554Z,15.27
2019-04-04T11:29:54.813Z,15.20
2019-04-04T11:32:24.378Z,14.80
2019-04-04T11:34:53.882Z,16.37
2019-04-04T11:37:23.726Z,16.50
2019-04-04T11:39:54.940Z,15.13
2019-04-04T11:42:23.979Z,15.77
2019-04-04T11:44:53.273Z,14.43
2019-04-04T11:47:23.730Z,15.67
2019-04-04T11:49:53.307Z,17.27
2019-04-04T11:52:22.794Z,15.97
2019-04-04T11:54:59.332Z,15.87
2019-04-04T11:57:29.416Z,16.80
2019-04-04T11:59:59.045Z,14.80
2019-04-04T12:02:32.566Z,15.70
2019-04-04T12:05:02.034Z,15.10
2019-04-04T12:07:31.313Z,14.23
2019-04-04T12:10:07.353Z,14.13
2019-04-04T12:12:32.333Z,13.27
2019-04-04T12:15:01.869Z,13.83
2019-04-04T12:17:31.684Z,15.97
2019-04-04T12:20:01.350Z,15.07
2019-04-04T12:22:30.751Z,16.67
2019-04-04T12:25:00.442Z,15.43
2019-04-04T12:27:30.118Z,15.87
2019-04-04T12:29:59.783Z,17.97
2019-04-04T12:32:29.401Z,19.10
2019-04-04T12:34:58.719Z,19.80
2019-04-04T12:37:28.083Z,21.10
2019-04-04T12:39:57.385Z,21.00
2019-04-04T12:42:26.669Z,17.77
2019-04-04T12:44:55.970Z,18.27
2019-04-04T12:47:25.265Z,17.50
2019-04-04T12:49:54.570Z,16.37
2019-04-04T12:52:23.857Z,16.33
2019-04-04T12:54:53.195Z,15.40
2019-04-04T12:57:22.627Z,16.37
2019-04-04T12:59:52.190Z,14.57
2019-04-04T13:02:21.646Z,12.43
2019-04-04T13:04:51.722Z,13.50
2019-04-04T13:07:21.406Z,13.17
2019-04-04T13:09:50.678Z,16.53
2019-04-04T13:12:19.994Z,19.67
2019-04-04T13:14:49.962Z,18.50
2019-04-04T13:17:19.682Z,19.60
2019-04-04T13:19:49.439Z,16.97
2019-04-04T13:22:18.734Z,15.57
2019-04-04T13:24:48.050Z,15.77
2019-04-04T13:27:17.865Z,15.03
2019-04-04T13:29:47.781Z,14.37
2019-04-04T13:32:17.126Z,16.40
2019-04-04T13:34:58.380Z,15.77
2019-04-04T13:37:17.767Z,13.97
2019-04-04T13:39:47.051Z,15.93
2019-04-04T13:42:16.352Z,17.40
2019-04-04T13:44:45.649Z,17.93
2019-04-04T13:47:14.934Z,14.60
2019-04-04T13:49:45.047Z,14.67
2019-04-04T13:52:14.377Z,16.20
2019-04-04T13:54:44.027Z,16.33
2019-04-04T13:57:13.312Z,15.47
2019-04-04T13:59:43.482Z,15.43
2019-04-04T14:02:12.777Z,16.60
2019-04-04T14:04:42.486Z,16.90
2019-04-04T14:07:11.790Z,15.00
2019-04-04T14:09:44.337Z,14.10
2019-04-04T14:12:14.299Z,15.90
2019-04-04T14:14:44.544Z,14.73
2019-04-04T14:17:13.926Z,14.53
2019-04-04T14:19:43.209Z,13.60
2019-04-04T14:22:12.623Z,13.27
2019-04-04T14:24:42.367Z,13.20
2019-04-04T14:27:11.755Z,13.57
2019-04-04T14:29:41.051Z,13.80
2019-04-04T14:32:10.660Z,14.27
2019-04-04T14:34:40.711Z,13.77
2019-04-04T14:37:10.382Z,14.50
2019-04-04T14:39:39.722Z,15.57
2019-04-04T14:42:09.004Z,13.20
2019-04-04T14:44:38.327Z,14.30
2019-04-04T14:47:07.601Z,14.60
2019-04-04T14:49:37.289Z,13.77
2019-04-04T14:52:06.581Z,14.53
2019-04-04T14:54:35.935Z,13.70
2019-04-04T14:57:05.313Z,13.87
2019-04-04T14:59:34.617Z,15.43
2019-04-04T15:02:03.948Z,14.70
2019-04-04T15:04:33.232Z,16.00
2019-04-04T15:07:02.950Z,15.87
2019-04-04T15:09:32.677Z,15.63
2019-04-04T15:12:02.311Z,14.67
2019-04-04T15:14:31.632Z,15.87
2019-04-04T15:17:01.010Z,15.27
2019-04-04T15:19:35.782Z,16.63
2019-04-04T15:22:05.491Z,15.77
2019-04-04T15:24:36.183Z,15.47
2019-04-04T15:27:05.778Z,16.17
2019-04-04T15:29:35.225Z,16.67
2019-04-04T15:32:04.521Z,16.33
2019-04-04T15:34:33.882Z,19.90
2019-04-04T15:37:03.166Z,19.00
2019-04-04T15:39:32.489Z,20.00
2019-04-04T15:42:02.883Z,18.37
2019-04-04T15:44:32.156Z,17.53
2019-04-04T15:47:02.187Z,16.83
2019-04-04T15:49:31.597Z,17.50
2019-04-04T15:52:00.982Z,16.53
2019-04-04T15:54:30.206Z,18.37
2019-04-04T15:56:59.871Z,18.10
2019-04-04T15:59:29.551Z,17.03
2019-04-04T16:01:58.899Z,15.67
2019-04-04T16:04:28.279Z,15.70
2019-04-04T16:06:57.994Z,14.17
2019-04-04T16:09:27.550Z,13.90
2019-04-04T16:11:57.342Z,14.53
2019-04-04T16:14:26.995Z,12.73
2019-04-04T16:16:56.894Z,12.30
2019-04-04T16:19:26.327Z,13.03
2019-04-04T16:21:55.702Z,10.33
2019-04-04T16:24:25.142Z,9.80
2019-04-04T16:26:54.862Z,9.90
2019-04-04T16:29:24.348Z,9.80
2019-04-04T16:31:53.772Z,12.17
2019-04-04T16:34:23.093Z,11.50
2019-04-04T16:36:52.907Z,10.33
2019-04-04T16:39:22.367Z,11.60
2019-04-04T16:42:01.654Z,11.40
2019-04-04T16:44:23.254Z,11.13
2019-04-04T16:46:53.104Z,11.10
2019-04-04T16:49:22.920Z,10.37
2019-04-04T16:51:52.443Z,12.10
2019-04-04T16:54:21.962Z,13.43
2019-04-04T16:56:51.648Z,11.90
2019-04-04T16:59:21.695Z,11.00
2019-04-04T17:01:50.986Z,13.73
2019-04-04T17:04:21.076Z,12.60
2019-04-04T17:06:50.480Z,12.40
2019-04-04T17:09:19.824Z,13.20
2019-04-04T17:11:49.799Z,11.53
2019-04-04T17:14:19.143Z,13.80
2019-04-04T17:16:49.064Z,13.13
2019-04-04T17:19:19.445Z,13.10
2019-04-04T17:21:48.783Z,11.40
2019-04-04T17:24:18.103Z,12.33
2019-04-04T17:26:47.927Z,12.20
2019-04-04T17:29:17.241Z,12.63
2019-04-04T17:31:46.795Z,11.63
2019-04-04T17:34:16.186Z,13.00
2019-04-04T17:36:45.565Z,19.57
2019-04-04T17:39:14.814Z,17.10
2019-04-04T17:41:44.100Z,12.80
2019-04-04T17:44:13.529Z,12.70
2019-04-04T17:46:43.637Z,13.27
2019-04-04T17:49:13.512Z,12.97
2019-04-04T17:51:43.320Z,12.20
2019-04-04T17:54:13.007Z,12.90
2019-04-04T17:56:42.384Z,12.17
2019-04-04T17:59:11.814Z,13.60
2019-04-04T18:01:41.135Z,12.93
2019-04-04T18:04:11.001Z,11.23
2019-04-04T18:06:40.826Z,12.30
2019-04-04T18:09:32.050Z,11.83
2019-04-04T18:12:03.751Z,13.13
2019-04-04T18:14:34.359Z,11.47
2019-04-04T18:17:04.452Z,12.40
2019-04-04T18:19:33.979Z,12.70
2019-04-04T18:22:03.246Z,11.73
2019-04-04T18:24:33.405Z,11.77
2019-04-04T18:27:02.685Z,11.50
2019-04-04T18:29:32.075Z,12.40
2019-04-04T18:32:01.350Z,12.13
2019-04-04T18:34:30.712Z,12.57
2019-04-04T18:37:00.147Z,11.20
2019-04-04T18:39:29.515Z,10.53
2019-04-04T18:41:58.855Z,11.80
2019-04-04T18:44:28.440Z,12.00
2019-04-04T18:46:58.148Z,11.13
2019-04-04T18:49:27.553Z,12.57
2019-04-04T18:51:56.923Z,11.63
2019-04-04T18:54:30.966Z,12.67
2019-04-04T18:57:02.118Z,14.27
2019-04-04T18:59:31.421Z,13.93
2019-04-04T19:02:00.986Z,12.23
2019-04-04T19:04:30.597Z,12.40
2019-04-04T19:06:59.933Z,11.90
2019-04-04T19:09:35.877Z,12.30
2019-04-04T19:12:05.899Z,13.10
2019-04-04T19:14:35.197Z,11.27
2019-04-04T19:17:04.475Z,12.90
2019-04-04T19:19:34.074Z,12.33
2019-04-04T19:22:03.389Z,12.30
2019-04-04T19:24:32.710Z,11.77
2019-04-04T19:27:02.319Z,12.90
2019-04-04T19:29:31.767Z,12.50
2019-04-04T19:32:01.082Z,11.53
2019-04-04T19:34:31.022Z,12.50
2019-04-04T19:37:00.330Z,11.37
2019-04-04T19:39:29.611Z,12.90
2019-04-04T19:41:58.926Z,11.47
2019-04-04T19:44:28.379Z,10.67
2019-04-04T19:46:57.730Z,11.90
2019-04-04T19:49:27.106Z,10.97
2019-04-04T19:51:56.452Z,13.30
2019-04-04T19:54:25.734Z,11.37
2019-04-04T19:56:55.100Z,11.07
2019-04-04T19:59:24.956Z,11.20
2019-04-04T20:01:54.303Z,12.30
2019-04-04T20:04:23.987Z,11.37
2019-04-04T20:06:53.689Z,12.20
2019-04-04T20:09:23.139Z,14.70
2019-04-04T20:11:52.435Z,12.47
2019-04-04T20:14:21.753Z,14.00
2019-04-04T20:16:51.091Z,14.10
2019-04-04T20:19:20.391Z,12.07
2019-04-04T20:21:49.667Z,12.47
2019-04-04T20:24:19.445Z,12.70
2019-04-04T20:26:49.522Z,13.40
2019-04-04T20:29:18.823Z,13.87
2019-04-04T20:31:48.090Z,13.13
2019-04-04T20:34:17.400Z,12.37
2019-04-04T20:36:46.682Z,14.30
2019-04-04T20:39:16.028Z,15.30
2019-04-04T20:42:04.458Z,15.83
2019-04-04T20:44:33.753Z,14.03
2019-04-04T20:47:03.708Z,15.63
2019-04-04T20:49:33.010Z,12.83
2019-04-04T20:52:02.281Z,14.70
2019-04-04T20:54:31.674Z,14.30
2019-04-04T20:57:01.473Z,12.53
2019-04-04T20:59:30.974Z,14.23
2019-04-04T21:02:00.241Z,13.50
2019-04-04T21:04:29.542Z,15.90
2019-04-04T21:06:58.850Z,14.33
2019-04-04T21:09:28.135Z,15.10
2019-04-04T21:11:57.794Z,15.70
2019-04-04T21:14:27.317Z,14.43
2019-04-04T21:16:56.636Z,14.10
2019-04-04T21:19:25.909Z,14.80
2019-04-04T21:21:55.210Z,14.33
2019-04-04T21:24:24.905Z,14.97
2019-04-04T21:26:54.418Z,17.27
2019-04-04T21:29:23.714Z,16.10
2019-04-04T21:31:53.006Z,16.87
2019-04-04T21:34:22.353Z,18.03
2019-04-04T21:36:52.156Z,19.33
2019-04-04T21:39:21.439Z,19.70
2019-04-04T21:41:50.758Z,21.23
2019-04-04T21:44:20.024Z,19.87
2019-04-04T21:46:49.723Z,19.03
2019-04-04T21:49:19.131Z,21.10
2019-04-04T21:51:48.443Z,19.50
2019-04-04T21:54:17.748Z,19.90
2019-04-04T21:56:47.014Z,18.60
2019-04-04T21:59:16.778Z,18.87
2019-04-04T22:01:46.055Z,19.90
2019-04-04T22:04:15.335Z,18.73
2019-04-04T22:06:44.974Z,19.10
2019-04-04T22:09:18.383Z,18.50
2019-04-04T22:11:47.663Z,17.60
2019-04-04T22:14:21.932Z,18.07
2019-04-04T22:16:48.152Z,17.67
2019-04-04T22:19:17.434Z,16.93
2019-04-04T22:21:46.738Z,17.97
2019-04-04T22:24:16.011Z,17.77
2019-04-04T22:26:45.312Z,17.47
2019-04-04T22:29:14.615Z,16.03
2019-04-04T22:31:44.342Z,18.03
2019-04-04T22:34:13.675Z,14.97
2019-04-04T22:36:42.894Z,14.40
2019-04-04T22:39:12.193Z,16.27
2019-04-04T22:41:41.469Z,15.77
2019-04-04T22:44:10.779Z,16.57
2019-04-04T22:46:40.065Z,17.10
2019-04-04T22:49:09.755Z,17.50
2019-04-04T22:51:39.411Z,15.80
2019-04-04T22:54:08.708Z,17.43
2019-04-04T22:56:37.994Z,16.90
2019-04-04T22:59:07.325Z,15.90
2019-04-04T23:01:36.585Z,15.87
2019-04-04T23:04:05.893Z,15.57
2019-04-04T23:06:35.185Z,14.13
2019-04-04T23:09:06.420Z,16.33
2019-04-04T23:11:36.029Z,17.07
2019-04-04T23:14:05.303Z,16.60
2019-04-04T23:16:34.594Z,17.30
2019-04-04T23:19:03.894Z,16.70
2019-04-04T23:21:33.198Z,17.93
2019-04-04T23:24:02.501Z,17.20
2019-04-04T23:26:31.805Z,16.30
2019-04-04T23:29:01.537Z,17.20
2019-04-04T23:31:30.832Z,16.60
2019-04-04T23:34:00.103Z,18.60
2019-04-04T23:36:34.734Z,19.03
2019-04-04T23:39:00.686Z,18.60
2019-04-04T23:41:29.999Z,16.70
2019-04-04T23:43:59.258Z,19.17
2019-04-04T23:46:28.938Z,18.23
2019-04-04T23:48:58.227Z,18.30
2019-04-04T23:51:27.959Z,19.50
2019-04-04T23:53:57.742Z,20.27
2019-04-04T23:56:27.023Z,20.87
2019-04-04T23:58:56.358Z,18.67
